Time;durP1;ratioP1;P1;durP2;ratioP2;P2;SDS_P1;SDS_P2;PMS_P1;PMS_P2;Temp;Humidity;BMP_temperature;BMP_pressure;BME280_temperature;BME280_humidity;BME280_pressure;Samples;Min_cycle;Max_cycle;Signal;HPM_P1;HPM_P2
2021/06/13 00:27:15;;;;;;;6.50;3.95;;;;;;;;;;4961316;27;20105;-68
2021/06/13 00:29:41;;;;;;;11.10;5.00;;;;;;;;;;4345009;33;20201;-69
2021/06/13 00:32:07;;;;;;;5.00;3.95;;;;;;;;;;4344566;33;20121;-69
2021/06/13 00:34:33;;;;;;;6.78;4.05;;;;;;;;;;4333202;33;20122;-69
2021/06/13 00:36:59;;;;;;;6.35;4.35;;;;;;;;;;4319386;33;20127;-69
2021/06/13 00:39:24;;;;;;;7.30;4.75;;;;;;;;;;4333209;33;20611;-69
2021/06/13 00:41:50;;;;;;;8.55;4.37;;;;;;;;;;4333080;33;20114;-69
2021/06/13 00:44:16;;;;;;;4.90;4.15;;;;;;;;;;4319539;33;20168;-69
2021/06/13 00:46:42;;;;;;;8.18;4.22;;;;;;;;;;4332977;33;20110;-69
2021/06/13 00:49:08;;;;;;;6.10;4.37;;;;;;;;;;4335172;33;20206;-68
2021/06/13 00:51:34;;;;;;;4.40;3.70;;;;;;;;;;4335219;33;20700;-68
2021/06/13 00:54:00;;;;;;;6.50;3.85;;;;;;;;;;4335297;33;20215;-68
2021/06/13 00:56:26;;;;;;;10.07;4.95;;;;;;;;;;4309851;33;20122;-68
2021/06/13 00:58:53;;;;;;;5.55;4.00;;;;;;;;;;4321544;33;20134;-68
2021/06/13 01:01:19;;;;;;;8.73;4.80;;;;;;;;;;4335109;33;20110;-69
2021/06/13 01:03:47;;;;;;;5.65;3.80;;;;;;;;;;4335186;33;20145;-69
2021/06/13 01:06:21;;;;;;;7.45;4.20;;;;;;;;;;4335137;33;20118;-69
2021/06/13 01:08:56;;;;;;;7.22;4.93;;;;;;;;;;4309976;33;20173;-69
2021/06/13 01:11:31;;;;;;;4.93;4.43;;;;;;;;;;4321480;33;20094;-69
2021/06/13 01:14:09;;;;;;;9.00;4.97;;;;;;;;;;4322019;33;20094;-69
2021/06/13 01:17:03;;;;;;;4.93;4.32;;;;;;;;;;4321491;33;20144;-69
2021/06/13 01:19:39;;;;;;;6.80;4.95;;;;;;;;;;4334996;33;20186;-69
2021/06/13 01:22:19;;;;;;;11.32;4.97;;;;;;;;;;4321480;33;20118;-69
2021/06/13 01:25:04;;;;;;;5.80;4.70;;;;;;;;;;4335195;33;20095;-69
2021/06/13 01:28:07;;;;;;;7.90;4.80;;;;;;;;;;4321749;33;20553;-69
2021/06/13 01:30:34;;;;;;;6.10;4.82;;;;;;;;;;4320497;33;20208;-69
2021/06/13 01:33:05;;;;;;;8.98;5.12;;;;;;;;;;4306775;33;20129;-69
2021/06/13 01:35:31;;;;;;;10.30;4.87;;;;;;;;;;4306765;33;20522;-69
2021/06/13 01:37:57;;;;;;;8.40;4.87;;;;;;;;;;4306889;33;20175;-69
2021/06/13 01:40:25;;;;;;;7.53;4.82;;;;;;;;;;4306751;33;20537;-69
2021/06/13 01:42:52;;;;;;;7.28;4.40;;;;;;;;;;4306630;33;20124;-69
2021/06/13 01:45:20;;;;;;;6.80;4.45;;;;;;;;;;4306733;33;20438;-69
2021/06/13 01:47:46;;;;;;;5.65;4.00;;;;;;;;;;4319961;33;20194;-69
2021/06/13 01:50:12;;;;;;;8.05;5.22;;;;;;;;;;4306606;33;20212;-69
2021/06/13 01:52:38;;;;;;;5.05;4.53;;;;;;;;;;4319833;33;20141;-69
2021/06/13 01:55:05;;;;;;;5.85;4.43;;;;;;;;;;4306586;33;20190;-68
2021/06/13 01:57:31;;;;;;;6.12;5.47;;;;;;;;;;4320131;33;20103;-69
2021/06/13 01:59:57;;;;;;;5.95;4.65;;;;;;;;;;4306049;33;20528;-69
2021/06/13 02:02:24;;;;;;;5.60;4.37;;;;;;;;;;4323142;33;20085;-69
2021/06/13 02:04:49;;;;;;;12.70;4.43;;;;;;;;;;4321085;33;20206;-69
2021/06/13 02:07:16;;;;;;;6.43;3.97;;;;;;;;;;4334699;33;20434;-69
2021/06/13 02:09:43;;;;;;;5.87;3.87;;;;;;;;;;4309111;33;20087;-69
2021/06/13 02:12:09;;;;;;;6.53;5.12;;;;;;;;;;4309278;33;20125;-69
2021/06/13 02:14:36;;;;;;;3.58;3.22;;;;;;;;;;4334815;33;20095;-69
2021/06/13 02:17:02;;;;;;;3.85;3.03;;;;;;;;;;4333021;33;20442;-69
2021/06/13 02:19:28;;;;;;;2.83;2.03;;;;;;;;;;4308961;33;20511;-69
2021/06/13 02:21:55;;;;;;;3.85;3.10;;;;;;;;;;4320899;33;20187;-69
2021/06/13 02:24:31;;;;;;;3.08;2.45;;;;;;;;;;4334457;33;20132;-68
2021/06/13 02:26:57;;;;;;;3.45;2.58;;;;;;;;;;4321110;33;20095;-68
2021/06/13 02:29:26;;;;;;;3.42;2.50;;;;;;;;;;4321100;33;20109;-69
2021/06/13 02:31:52;;;;;;;7.20;1.77;;;;;;;;;;4320467;33;20134;-69
2021/06/13 02:34:21;;;;;;;6.62;2.53;;;;;;;;;;4321036;33;20225;-68
2021/06/13 02:36:49;;;;;;;4.03;2.28;;;;;;;;;;4320622;33;20549;-68
2021/06/13 02:39:15;;;;;;;5.25;2.60;;;;;;;;;;4320902;33;20113;-68
2021/06/13 02:41:41;;;;;;;2.80;2.25;;;;;;;;;;4334203;33;20118;-68
2021/06/13 02:44:07;;;;;;;7.20;3.22;;;;;;;;;;4320720;33;20220;-68
2021/06/13 02:46:33;;;;;;;3.30;2.85;;;;;;;;;;4320898;33;20126;-68
2021/06/13 02:48:59;;;;;;;9.00;2.85;;;;;;;;;;4320642;33;20226;-68
2021/06/13 02:51:32;;;;;;;6.70;3.17;;;;;;;;;;4320865;33;20519;-69
2021/06/13 02:53:58;;;;;;;3.53;2.28;;;;;;;;;;4320612;33;20138;-69
2021/06/13 02:56:42;;;;;;;3.60;2.90;;;;;;;;;;4320574;33;20540;-69
2021/06/13 02:59:27;;;;;;;7.40;2.55;;;;;;;;;;4309946;33;20173;-69
2021/06/13 03:01:53;;;;;;;3.07;2.60;;;;;;;;;;4334356;33;20512;-69
2021/06/13 03:04:20;;;;;;;6.50;2.50;;;;;;;;;;4320542;33;20233;-68
2021/06/13 03:06:47;;;;;;;4.03;2.58;;;;;;;;;;4320487;33;20108;-68
2021/06/13 03:09:13;;;;;;;2.62;2.15;;;;;;;;;;4320693;33;20106;-68
2021/06/13 03:11:39;;;;;;;3.72;2.95;;;;;;;;;;4319356;33;20453;-69
2021/06/13 03:14:06;;;;;;;1.65;1.55;;;;;;;;;;4320480;33;20216;-68
2021/06/13 03:16:32;;;;;;;3.62;2.12;;;;;;;;;;4320758;33;20119;-68
2021/06/13 03:18:58;;;;;;;5.62;2.42;;;;;;;;;;4320639;33;20094;-68
2021/06/13 03:21:24;;;;;;;2.30;1.85;;;;;;;;;;4320312;33;20095;-68
2021/06/13 03:23:50;;;;;;;1.62;1.40;;;;;;;;;;4320195;33;20106;-68
2021/06/13 03:26:16;;;;;;;3.15;2.40;;;;;;;;;;4320280;33;20114;-68
2021/06/13 03:28:42;;;;;;;3.12;2.20;;;;;;;;;;4320056;33;20106;-68
2021/06/13 03:31:08;;;;;;;2.12;1.85;;;;;;;;;;4320185;33;20154;-68
2021/06/13 03:33:35;;;;;;;5.18;2.45;;;;;;;;;;4320157;33;20543;-69
2021/06/13 03:36:01;;;;;;;2.95;1.92;;;;;;;;;;4308268;33;20113;-69
2021/06/13 03:38:27;;;;;;;6.50;2.45;;;;;;;;;;4320214;33;20521;-68
2021/06/13 03:40:53;;;;;;;1.20;1.20;;;;;;;;;;4320166;33;20553;-68
2021/06/13 03:43:19;;;;;;;3.55;1.95;;;;;;;;;;4320271;33;20597;-70
2021/06/13 03:45:46;;;;;;;1.23;1.15;;;;;;;;;;4320133;33;20130;-70
2021/06/13 03:48:12;;;;;;;1.92;1.55;;;;;;;;;;4320126;33;20513;-69
2021/06/13 03:50:38;;;;;;;5.72;2.33;;;;;;;;;;4320074;33;20114;-70
2021/06/13 03:53:03;;;;;;;3.00;2.20;;;;;;;;;;4320253;33;20118;-69
2021/06/13 03:55:30;;;;;;;1.90;1.62;;;;;;;;;;4320081;33;20197;-69
2021/06/13 03:57:56;;;;;;;1.67;1.58;;;;;;;;;;4307786;33;20122;-68
2021/06/13 04:00:24;;;;;;;3.05;2.35;;;;;;;;;;4320415;33;20103;-69
2021/06/13 04:02:50;;;;;;;5.00;1.80;;;;;;;;;;4320246;33;20122;-70
2021/06/13 04:05:17;;;;;;;3.60;2.33;;;;;;;;;;4319951;33;20528;-69
2021/06/13 04:07:43;;;;;;;2.42;2.22;;;;;;;;;;4307908;33;20496;-69
2021/06/13 04:10:10;;;;;;;8.25;3.80;;;;;;;;;;4319967;33;20107;-69
2021/06/13 04:12:36;;;;;;;4.20;3.12;;;;;;;;;;4319930;33;20137;-69
2021/06/13 04:15:02;;;;;;;3.05;2.22;;;;;;;;;;4319814;33;20512;-69
2021/06/13 04:17:28;;;;;;;1.80;1.70;;;;;;;;;;4333477;33;20102;-69
2021/06/13 04:19:54;;;;;;;3.42;2.17;;;;;;;;;;4319818;33;20642;-70
2021/06/13 04:22:20;;;;;;;1.75;1.65;;;;;;;;;;4332869;33;20194;-69
2021/06/13 04:24:47;;;;;;;4.40;1.60;;;;;;;;;;4319675;33;20102;-69
2021/06/13 04:27:14;;;;;;;2.45;1.95;;;;;;;;;;4319829;33;20115;-69
2021/06/13 04:29:40;;;;;;;5.45;2.35;;;;;;;;;;4333228;33;20087;-69
2021/06/13 04:32:10;;;;;;;2.30;2.10;;;;;;;;;;4319711;33;20200;-69
2021/06/13 04:34:36;;;;;;;2.25;1.75;;;;;;;;;;4333476;33;20122;-68
2021/06/13 04:37:03;;;;;;;2.10;1.62;;;;;;;;;;4333116;33;20121;-69
2021/06/13 04:39:28;;;;;;;2.85;2.10;;;;;;;;;;4333400;33;20127;-68
2021/06/13 04:41:55;;;;;;;4.18;2.62;;;;;;;;;;4319523;33;20098;-69
2021/06/13 04:44:21;;;;;;;3.10;2.33;;;;;;;;;;4333188;33;20134;-69
2021/06/13 04:46:47;;;;;;;1.85;1.48;;;;;;;;;;4333306;33;20093;-69
2021/06/13 04:49:13;;;;;;;0.82;0.82;;;;;;;;;;4333094;33;20110;-68
2021/06/13 04:51:39;;;;;;;5.40;1.77;;;;;;;;;;4332955;33;20142;-68
2021/06/13 04:54:28;;;;;;;0.98;0.98;;;;;;;;;;4319762;33;20118;-69
2021/06/13 04:57:08;;;;;;;2.50;2.30;;;;;;;;;;4319781;33;20090;-69
2021/06/13 04:59:34;;;;;;;5.18;2.20;;;;;;;;;;4319366;33;20118;-69
2021/06/13 05:02:00;;;;;;;6.78;2.75;;;;;;;;;;4319340;33;20544;-69
2021/06/13 05:04:26;;;;;;;4.72;2.42;;;;;;;;;;4307586;33;20618;-69
2021/06/13 05:06:52;;;;;;;3.22;2.35;;;;;;;;;;4307142;33;20573;-69
2021/06/13 05:09:18;;;;;;;1.92;1.75;;;;;;;;;;4319303;33;20117;-69
2021/06/13 05:11:44;;;;;;;5.85;2.08;;;;;;;;;;4332666;33;20138;-69
2021/06/13 05:14:10;;;;;;;8.73;2.67;;;;;;;;;;4331315;33;20138;-69
2021/06/13 05:16:38;;;;;;;1.70;1.30;;;;;;;;;;4332758;33;20143;-70
2021/06/13 05:19:03;;;;;;;5.60;2.08;;;;;;;;;;4319697;33;20083;-69
2021/06/13 05:21:29;;;;;;;2.87;2.42;;;;;;;;;;4332646;33;20105;-69
2021/06/13 05:23:55;;;;;;;3.72;2.70;;;;;;;;;;4332608;33;20138;-69
2021/06/13 05:26:21;;;;;;;11.35;2.35;;;;;;;;;;4332628;33;20520;-69
2021/06/13 05:28:47;;;;;;;2.37;1.85;;;;;;;;;;4332353;33;20145;-69
2021/06/13 05:31:13;;;;;;;0.90;0.90;;;;;;;;;;4332752;33;20114;-69
2021/06/13 05:33:39;;;;;;;3.03;2.17;;;;;;;;;;4332512;33;20510;-69
2021/06/13 05:36:05;;;;;;;1.73;1.60;;;;;;;;;;4334789;33;20139;-69
2021/06/13 05:38:31;;;;;;;1.75;1.65;;;;;;;;;;4334833;33;20230;-69
2021/06/13 05:40:57;;;;;;;5.95;2.83;;;;;;;;;;4334807;33;20117;-69
2021/06/13 05:43:24;;;;;;;3.55;2.10;;;;;;;;;;4321437;33;20121;-69
2021/06/13 05:45:49;;;;;;;4.25;2.50;;;;;;;;;;4334623;33;20122;-69
2021/06/13 05:48:15;;;;;;;15.23;4.85;;;;;;;;;;4334853;33;20213;-69
2021/06/13 05:50:41;;;;;;;1.55;1.42;;;;;;;;;;4334682;33;20111;-69
2021/06/13 05:53:07;;;;;;;1.10;1.10;;;;;;;;;;4334690;33;20181;-69
2021/06/13 05:55:34;;;;;;;2.65;2.17;;;;;;;;;;4320953;33;20545;-69
2021/06/13 05:58:00;;;;;;;2.58;2.37;;;;;;;;;;4334706;33;20094;-69
2021/06/13 06:00:27;;;;;;;1.40;1.30;;;;;;;;;;4334904;33;20118;-69
2021/06/13 06:02:53;;;;;;;2.92;2.00;;;;;;;;;;4334923;33;20087;-69
2021/06/13 06:05:20;;;;;;;1.85;1.67;;;;;;;;;;4321136;33;20127;-69
2021/06/13 06:07:46;;;;;;;2.30;1.70;;;;;;;;;;4320925;33;20182;-69
2021/06/13 06:10:12;;;;;;;6.60;3.10;;;;;;;;;;4334597;33;20087;-68
2021/06/13 06:12:38;;;;;;;0.95;0.95;;;;;;;;;;4334486;33;20184;-69
2021/06/13 06:15:06;;;;;;;2.83;1.42;;;;;;;;;;4333125;33;20129;-69
2021/06/13 06:17:32;;;;;;;2.58;2.17;;;;;;;;;;4334507;33;20212;-69
2021/06/13 06:19:58;;;;;;;2.35;1.80;;;;;;;;;;4320890;33;20158;-69
2021/06/13 06:22:24;;;;;;;2.20;1.70;;;;;;;;;;4334448;33;20121;-69
2021/06/13 06:24:50;;;;;;;2.53;1.45;;;;;;;;;;4334379;33;20617;-69
2021/06/13 06:27:15;;;;;;;1.37;1.27;;;;;;;;;;4334155;33;20323;-69
2021/06/13 06:29:41;;;;;;;2.83;2.33;;;;;;;;;;4334306;33;20141;-69
2021/06/13 06:32:07;;;;;;;2.17;1.95;;;;;;;;;;4320835;33;20181;-69
2021/06/13 06:34:33;;;;;;;4.90;2.05;;;;;;;;;;4320774;33;20142;-69
2021/06/13 06:36:59;;;;;;;1.10;1.10;;;;;;;;;;4320987;33;20544;-69
2021/06/13 06:39:25;;;;;;;1.10;1.10;;;;;;;;;;4320747;33;20127;-69
2021/06/13 06:41:51;;;;;;;3.08;2.45;;;;;;;;;;4320596;33;20616;-69
2021/06/13 06:44:17;;;;;;;1.17;1.12;;;;;;;;;;4334310;33;20196;-69
2021/06/13 06:46:42;;;;;;;2.20;2.00;;;;;;;;;;4320440;33;20201;-69
2021/06/13 06:49:08;;;;;;;7.53;2.75;;;;;;;;;;4334408;33;20126;-68
2021/06/13 06:51:34;;;;;;;3.87;2.20;;;;;;;;;;4320762;33;20126;-69
2021/06/13 06:54:00;;;;;;;3.33;2.37;;;;;;;;;;4334146;33;20114;-69
2021/06/13 06:56:27;;;;;;;1.70;1.40;;;;;;;;;;4334176;33;20122;-69
2021/06/13 06:58:53;;;;;;;1.02;1.02;;;;;;;;;;4333999;33;20106;-69
2021/06/13 07:01:19;;;;;;;2.03;1.65;;;;;;;;;;4334361;33;20098;-69
2021/06/13 07:03:45;;;;;;;4.65;3.03;;;;;;;;;;4334030;33;20118;-69
2021/06/13 07:06:11;;;;;;;1.00;1.00;;;;;;;;;;4334078;33;20118;-69
2021/06/13 07:08:37;;;;;;;1.48;1.30;;;;;;;;;;4334134;33;20216;-69
2021/06/13 07:11:02;;;;;;;0.93;0.90;;;;;;;;;;4333907;33;20125;-69
2021/06/13 07:13:28;;;;;;;1.58;1.48;;;;;;;;;;4334179;33;20594;-69
2021/06/13 07:15:54;;;;;;;0.80;0.80;;;;;;;;;;4333943;33;20186;-69
2021/06/13 07:18:20;;;;;;;1.60;1.50;;;;;;;;;;4334202;33;20220;-69
2021/06/13 07:20:46;;;;;;;2.00;1.90;;;;;;;;;;4333904;33;20122;-68
2021/06/13 07:23:12;;;;;;;2.28;2.05;;;;;;;;;;4320297;33;20122;-69
2021/06/13 07:25:38;;;;;;;1.42;1.33;;;;;;;;;;4334149;33;20122;-69
2021/06/13 07:28:05;;;;;;;1.70;1.60;;;;;;;;;;4333720;33;20131;-69
2021/06/13 07:30:34;;;;;;;1.85;1.75;;;;;;;;;;4333836;33;20497;-70
2021/06/13 07:33:04;;;;;;;2.42;2.22;;;;;;;;;;4333834;33;20113;-70
2021/06/13 07:35:29;;;;;;;4.82;2.42;;;;;;;;;;4334091;33;20130;-70
2021/06/13 07:37:55;;;;;;;1.77;1.67;;;;;;;;;;4320436;33;20457;-70
2021/06/13 07:40:21;;;;;;;3.45;2.30;;;;;;;;;;4320144;33;20246;-70
2021/06/13 07:42:48;;;;;;;1.10;1.10;;;;;;;;;;4333600;33;20178;-68
2021/06/13 07:45:14;;;;;;;1.73;1.62;;;;;;;;;;4320126;33;20582;-67
2021/06/13 07:47:40;;;;;;;1.92;1.62;;;;;;;;;;4333969;33;20110;-67
2021/06/13 07:50:08;;;;;;;3.25;2.40;;;;;;;;;;4333660;33;20130;-67
2021/06/13 07:52:34;;;;;;;3.33;2.15;;;;;;;;;;4333632;33;20103;-67
2021/06/13 07:55:00;;;;;;;2.15;1.95;;;;;;;;;;4320041;33;20140;-68
2021/06/13 07:57:26;;;;;;;8.25;2.70;;;;;;;;;;4319274;33;20617;-68
2021/06/13 07:59:51;;;;;;;4.35;2.50;;;;;;;;;;4333640;33;20129;-71
2021/06/13 08:02:17;;;;;;;1.90;1.70;;;;;;;;;;4333548;33;20115;-68
2021/06/13 08:04:49;;;;;;;3.33;1.92;;;;;;;;;;4333518;33;20130;-68
2021/06/13 08:07:15;;;;;;;1.67;1.55;;;;;;;;;;4333724;33;20218;-68
2021/06/13 08:09:40;;;;;;;2.15;1.45;;;;;;;;;;4333479;33;20541;-68
2021/06/13 08:12:07;;;;;;;1.30;1.30;;;;;;;;;;4319841;33;20126;-68
2021/06/13 08:14:33;;;;;;;2.42;2.03;;;;;;;;;;4333710;33;20107;-69
2021/06/13 08:16:59;;;;;;;1.20;1.20;;;;;;;;;;4333386;33;20177;-69
2021/06/13 08:19:25;;;;;;;3.53;2.60;;;;;;;;;;4333407;33;20200;-69
2021/06/13 08:21:51;;;;;;;2.20;2.00;;;;;;;;;;4333388;33;20114;-69
2021/06/13 08:24:17;;;;;;;1.42;1.33;;;;;;;;;;4333285;33;20127;-69
2021/06/13 08:26:43;;;;;;;4.90;3.05;;;;;;;;;;4333084;33;20515;-69
2021/06/13 08:29:09;;;;;;;1.90;1.73;;;;;;;;;;4333475;33;20098;-69
2021/06/13 08:31:35;;;;;;;6.12;2.05;;;;;;;;;;4333085;33;20098;-69
2021/06/13 08:34:02;;;;;;;3.35;2.50;;;;;;;;;;4333177;33;20138;-69
2021/06/13 08:36:28;;;;;;;4.32;2.35;;;;;;;;;;4333433;33;20123;-69
2021/06/13 08:38:55;;;;;;;2.58;2.28;;;;;;;;;;4333113;33;20102;-68
2021/06/13 08:41:22;;;;;;;3.62;1.70;;;;;;;;;;4333194;33;20097;-69
2021/06/13 08:43:48;;;;;;;2.67;1.75;;;;;;;;;;4333117;33;20118;-69
2021/06/13 08:46:14;;;;;;;1.62;1.52;;;;;;;;;;4319706;33;20223;-69
2021/06/13 08:48:44;;;;;;;1.70;1.60;;;;;;;;;;4332947;33;20203;-68
2021/06/13 08:51:10;;;;;;;3.25;2.30;;;;;;;;;;4319366;33;20094;-70
2021/06/13 08:53:36;;;;;;;5.87;2.97;;;;;;;;;;4333177;33;20170;-69
2021/06/13 08:56:03;;;;;;;4.75;2.35;;;;;;;;;;4319567;33;20131;-70
2021/06/13 08:58:28;;;;;;;4.57;3.37;;;;;;;;;;4333137;33;20094;-70
2021/06/13 09:00:54;;;;;;;2.47;1.85;;;;;;;;;;4319489;33;20579;-70
2021/06/13 09:03:20;;;;;;;1.33;1.27;;;;;;;;;;4332928;33;20121;-70
2021/06/13 09:05:46;;;;;;;2.90;2.60;;;;;;;;;;4319306;33;20122;-70
2021/06/13 09:08:13;;;;;;;5.78;3.00;;;;;;;;;;4333284;33;20136;-70
2021/06/13 09:10:40;;;;;;;4.05;3.37;;;;;;;;;;4335108;33;20087;-70
2021/06/13 09:13:14;;;;;;;3.53;2.47;;;;;;;;;;4334805;33;20469;-70
2021/06/13 09:16:02;;;;;;;6.30;3.12;;;;;;;;;;4335107;33;20122;-69
2021/06/13 09:18:41;;;;;;;4.55;2.83;;;;;;;;;;4334981;33;20204;-70
2021/06/13 09:21:08;;;;;;;5.97;3.00;;;;;;;;;;4334936;33;20122;-69
2021/06/13 09:23:35;;;;;;;7.10;3.22;;;;;;;;;;4334761;33;20541;-70
2021/06/13 09:26:05;;;;;;;2.55;2.35;;;;;;;;;;4334959;33;20289;-70
2021/06/13 09:28:33;;;;;;;11.25;2.87;;;;;;;;;;4334763;33;20118;-70
2021/06/13 09:30:59;;;;;;;6.40;3.15;;;;;;;;;;4334817;33;20137;-69
2021/06/13 09:33:32;;;;;;;5.70;3.03;;;;;;;;;;4334901;33;20105;-69
2021/06/13 09:35:59;;;;;;;5.53;3.22;;;;;;;;;;4321347;33;20130;-70
2021/06/13 09:38:44;;;;;;;6.65;3.00;;;;;;;;;;4335030;33;20138;-70
2021/06/13 09:41:21;;;;;;;5.63;3.20;;;;;;;;;;4334855;33;20133;-69
2021/06/13 09:43:48;;;;;;;4.15;2.87;;;;;;;;;;4334688;33;20200;-70
2021/06/13 09:46:19;;;;;;;10.73;3.53;;;;;;;;;;4334747;33;20221;-70
2021/06/13 09:48:46;;;;;;;5.75;2.83;;;;;;;;;;4321265;33;20119;-69
2021/06/13 09:51:34;;;;;;;5.62;2.80;;;;;;;;;;4334700;33;20288;-69
2021/06/13 09:54:01;;;;;;;9.88;3.55;;;;;;;;;;4323315;33;20083;-69
2021/06/13 09:56:32;;;;;;;10.70;3.33;;;;;;;;;;4334975;33;20569;-69
2021/06/13 09:59:11;;;;;;;9.18;3.00;;;;;;;;;;4334728;33;20114;-69
2021/06/13 10:01:44;;;;;;;8.65;2.72;;;;;;;;;;4334886;33;20115;-69
2021/06/13 10:04:19;;;;;;;7.78;3.08;;;;;;;;;;4334881;33;20110;-69
2021/06/13 10:06:48;;;;;;;;;;;;;;;;;;4335383;33;20199;-68
2021/06/13 10:09:15;;;;;;;7.18;2.70;;;;;;;;;;4334581;33;19969;-68
2021/06/13 10:11:41;;;;;;;4.25;2.92;;;;;;;;;;4334533;33;20122;-68
2021/06/13 10:14:12;;;;;;;8.75;3.85;;;;;;;;;;4320980;33;20125;-68
2021/06/13 10:16:43;;;;;;;4.10;2.83;;;;;;;;;;4334490;33;20559;-68
2021/06/13 10:19:22;;;;;;;3.90;2.42;;;;;;;;;;4321298;33;20099;-69
2021/06/13 10:21:53;;;;;;;3.67;2.60;;;;;;;;;;4334176;33;20114;-69
2021/06/13 10:24:20;;;;;;;4.50;2.45;;;;;;;;;;4334738;33;20193;-69
2021/06/13 10:26:53;;;;;;;3.80;2.25;;;;;;;;;;4334150;33;20106;-69
2021/06/13 10:29:19;;;;;;;5.72;3.10;;;;;;;;;;4334194;33;20134;-69
2021/06/13 10:31:47;;;;;;;3.62;2.33;;;;;;;;;;4334198;33;20130;-69
2021/06/13 10:34:14;;;;;;;3.12;2.60;;;;;;;;;;4334405;33;20216;-69
2021/06/13 10:36:41;;;;;;;3.28;2.78;;;;;;;;;;4334576;33;20528;-69
2021/06/13 10:39:09;;;;;;;4.75;2.55;;;;;;;;;;4334344;33;20197;-69
2021/06/13 10:41:35;;;;;;;3.65;2.60;;;;;;;;;;4334485;33;20103;-69
2021/06/13 10:44:05;;;;;;;10.80;2.70;;;;;;;;;;4334307;33;20465;-68
2021/06/13 10:46:32;;;;;;;3.58;2.67;;;;;;;;;;4334325;33;20095;-69
2021/06/13 10:49:00;;;;;;;3.97;2.70;;;;;;;;;;4320853;33;20120;-69
2021/06/13 10:51:31;;;;;;;5.10;2.30;;;;;;;;;;4321016;33;20611;-70
2021/06/13 10:54:19;;;;;;;3.35;2.47;;;;;;;;;;4334272;33;20276;-69
2021/06/13 10:56:45;;;;;;;8.00;2.85;;;;;;;;;;4334355;33;20146;-69
2021/06/13 10:59:13;;;;;;;13.07;3.53;;;;;;;;;;4320605;33;20126;-69
2021/06/13 11:02:03;;;;;;;5.10;3.35;;;;;;;;;;4334022;33;20119;-69
2021/06/13 11:04:50;;;;;;;4.35;2.80;;;;;;;;;;4321179;33;20118;-69
2021/06/13 11:07:45;;;;;;;5.32;3.15;;;;;;;;;;4334154;33;20106;-70
2021/06/13 11:10:16;;;;;;;5.45;3.55;;;;;;;;;;4334144;33;20149;-70
2021/06/13 11:13:01;;;;;;;3.65;3.28;;;;;;;;;;4334030;33;20092;-70
2021/06/13 11:15:38;;;;;;;3.50;3.03;;;;;;;;;;4321048;33;20519;-70
2021/06/13 11:18:22;;;;;;;6.62;3.08;;;;;;;;;;4333950;33;20654;-70
2021/06/13 11:21:04;;;;;;;7.07;5.00;;;;;;;;;;4334075;33;20115;-70
2021/06/13 11:23:30;;;;;;;9.32;3.87;;;;;;;;;;4321326;33;20156;-70
2021/06/13 11:25:57;;;;;;;7.12;4.53;;;;;;;;;;4333894;33;20641;-70
2021/06/13 11:28:27;;;;;;;5.05;4.10;;;;;;;;;;4320187;33;20165;-70
2021/06/13 11:30:57;;;;;;;7.28;4.75;;;;;;;;;;4333902;33;20136;-69
2021/06/13 11:33:36;;;;;;;8.18;4.62;;;;;;;;;;4332907;33;20118;-70
2021/06/13 11:36:03;;;;;;;10.45;5.70;;;;;;;;;;4333793;33;20514;-69
2021/06/13 11:38:29;;;;;;;16.08;4.95;;;;;;;;;;4333676;33;20133;-70
2021/06/13 11:41:00;;;;;;;11.43;5.25;;;;;;;;;;4320281;33;20612;-70
2021/06/13 11:43:41;;;;;;;16.10;7.22;;;;;;;;;;4334001;33;20180;-71
2021/06/13 11:46:07;;;;;;;7.97;5.25;;;;;;;;;;4320112;33;20102;-71
2021/06/13 11:48:34;;;;;;;10.65;5.50;;;;;;;;;;4333629;33;20113;-71
2021/06/13 11:51:00;;;;;;;8.27;4.28;;;;;;;;;;4333933;33;20130;-71
2021/06/13 11:53:58;;;;;;;8.57;4.10;;;;;;;;;;4333577;33;20099;-70
2021/06/13 11:56:33;;;;;;;13.68;5.07;;;;;;;;;;4333811;33;20530;-70
2021/06/13 11:59:06;;;;;;;14.68;6.18;;;;;;;;;;4333976;33;20118;-70
2021/06/13 12:01:36;;;;;;;8.35;4.18;;;;;;;;;;4333566;33;20130;-70
2021/06/13 12:04:04;;;;;;;11.88;4.45;;;;;;;;;;4333601;33;20119;-70
2021/06/13 12:06:30;;;;;;;9.35;4.82;;;;;;;;;;4333514;33;20110;-71
2021/06/13 12:08:56;;;;;;;3.10;1.92;;;;;;;;;;4333465;33;20087;-71
2021/06/13 12:11:42;;;;;;;5.40;3.10;;;;;;;;;;4333509;33;20106;-71
2021/06/13 12:14:41;;;;;;;2.80;2.37;;;;;;;;;;4333474;33;20099;-70
2021/06/13 12:17:22;;;;;;;3.62;2.40;;;;;;;;;;4321638;33;20194;-70
2021/06/13 12:19:52;;;;;;;4.85;2.30;;;;;;;;;;4333347;33;20533;-70
2021/06/13 12:22:53;;;;;;;5.15;3.62;;;;;;;;;;4333313;33;20521;-70
2021/06/13 12:28:06;;;;;;;1.58;1.48;;;;;;;;;;4332951;33;20115;-71
2021/06/13 12:30:32;;;;;;;6.20;2.62;;;;;;;;;;4319767;33;20109;-71
2021/06/13 12:33:05;;;;;;;3.55;2.60;;;;;;;;;;4333982;33;20461;-70
2021/06/13 12:35:33;;;;;;;4.18;2.72;;;;;;;;;;4333321;33;20101;-70
2021/06/13 12:38:02;;;;;;;1.42;1.33;;;;;;;;;;4319767;33;20123;-70
2021/06/13 12:40:39;;;;;;;2.08;1.40;;;;;;;;;;4333509;33;20110;-71
2021/06/13 12:43:05;;;;;;;4.65;3.12;;;;;;;;;;4333008;33;20118;-70
2021/06/13 12:45:31;;;;;;;2.75;2.53;;;;;;;;;;4333390;33;20121;-71
2021/06/13 12:47:59;;;;;;;4.85;2.62;;;;;;;;;;4333465;33;20206;-71
2021/06/13 12:50:38;;;;;;;1.70;1.60;;;;;;;;;;4333145;33;20365;-70
2021/06/13 12:53:05;;;;;;;4.97;2.85;;;;;;;;;;4332922;33;20115;-69
2021/06/13 12:55:50;;;;;;;4.70;3.10;;;;;;;;;;4319622;33;20106;-69
2021/06/13 12:58:20;;;;;;;3.87;3.07;;;;;;;;;;4332862;33;20198;-70
2021/06/13 13:00:46;;;;;;;7.87;3.03;;;;;;;;;;4333616;33;20128;-69
2021/06/13 13:03:16;;;;;;;7.72;3.65;;;;;;;;;;4332868;33;20227;-70
2021/06/13 13:05:43;;;;;;;7.12;3.22;;;;;;;;;;4333050;33;20129;-68
2021/06/13 13:08:17;;;;;;;5.10;3.12;;;;;;;;;;4331594;33;20101;-69
2021/06/13 13:11:18;;;;;;;4.28;2.87;;;;;;;;;;4333009;33;20438;-69
2021/06/13 13:13:50;;;;;;;4.10;2.87;;;;;;;;;;4322716;33;20118;-70
2021/06/13 13:16:28;;;;;;;5.03;3.20;;;;;;;;;;4332762;33;20422;-70
2021/06/13 13:18:54;;;;;;;5.45;3.00;;;;;;;;;;4332652;33;20192;-70
2021/06/13 13:21:38;;;;;;;4.15;3.05;;;;;;;;;;4332580;33;20213;-70
2021/06/13 13:24:05;;;;;;;14.90;4.07;;;;;;;;;;4332646;33;20595;-70
2021/06/13 13:26:31;;;;;;;5.28;3.65;;;;;;;;;;4332678;33;20184;-70
2021/06/13 13:28:57;;;;;;;4.25;3.20;;;;;;;;;;4318883;33;20111;-70
2021/06/13 13:31:32;;;;;;;10.02;5.82;;;;;;;;;;4332507;33;20281;-70
2021/06/13 13:33:58;;;;;;;8.98;4.90;;;;;;;;;;4332617;33;20474;-71
2021/06/13 13:36:44;;;;;;;10.02;4.50;;;;;;;;;;4332472;33;20137;-71
2021/06/13 13:39:11;;;;;;;10.73;4.30;;;;;;;;;;4319466;33;20243;-70
2021/06/13 13:41:39;;;;;;;8.75;4.35;;;;;;;;;;4332565;33;20117;-70
2021/06/13 13:44:07;;;;;;;7.50;5.00;;;;;;;;;;4332314;33;20585;-70
2021/06/13 13:46:34;;;;;;;9.05;4.82;;;;;;;;;;4332290;33;20110;-70
2021/06/13 13:49:01;;;;;;;10.15;4.62;;;;;;;;;;4319100;33;20501;-70
2021/06/13 13:51:27;;;;;;;6.45;4.75;;;;;;;;;;4332092;33;20470;-69
2021/06/13 13:53:54;;;;;;;6.35;4.40;;;;;;;;;;4332061;33;20515;-70
2021/06/13 13:56:22;;;;;;;5.10;3.35;;;;;;;;;;4333683;33;20177;-70
2021/06/13 13:58:48;;;;;;;8.68;3.85;;;;;;;;;;4321040;33;20212;-69
2021/06/13 14:01:15;;;;;;;13.70;4.43;;;;;;;;;;4320981;33;20090;-70
2021/06/13 14:03:41;;;;;;;9.80;4.72;;;;;;;;;;4334413;33;20101;-70
2021/06/13 14:06:07;;;;;;;7.55;4.28;;;;;;;;;;4334528;33;20098;-70
2021/06/13 14:08:40;;;;;;;9.55;4.60;;;;;;;;;;4334345;33;20127;-70
2021/06/13 14:11:06;;;;;;;13.43;4.68;;;;;;;;;;4334159;33;20199;-70
2021/06/13 14:13:32;;;;;;;11.57;5.90;;;;;;;;;;4334584;33;20585;-69
2021/06/13 14:15:58;;;;;;;15.15;6.37;;;;;;;;;;4334565;33;20106;-69
2021/06/13 14:18:24;;;;;;;10.23;5.97;;;;;;;;;;4334281;33;20092;-70
2021/06/13 14:20:50;;;;;;;11.88;5.12;;;;;;;;;;4334586;33;20126;-70
2021/06/13 14:23:16;;;;;;;7.25;4.25;;;;;;;;;;4334515;33;20556;-71
2021/06/13 14:25:43;;;;;;;7.78;4.20;;;;;;;;;;4334517;33;20219;-70
2021/06/13 14:28:09;;;;;;;7.95;5.43;;;;;;;;;;4333951;33;20650;-71
2021/06/13 14:30:36;;;;;;;7.12;4.47;;;;;;;;;;4320893;33;20474;-71
2021/06/13 14:33:02;;;;;;;6.72;4.28;;;;;;;;;;4334340;33;20146;-71
2021/06/13 14:35:29;;;;;;;15.68;5.22;;;;;;;;;;4334597;33;20493;-70
2021/06/13 14:37:55;;;;;;;9.85;4.70;;;;;;;;;;4334251;33;20113;-70
2021/06/13 14:40:21;;;;;;;8.70;4.85;;;;;;;;;;4334251;33;20123;-71
2021/06/13 14:42:47;;;;;;;10.35;5.43;;;;;;;;;;4334353;33;20457;-70
2021/06/13 14:45:14;;;;;;;11.73;5.78;;;;;;;;;;4334288;33;20125;-72
2021/06/13 14:47:40;;;;;;;9.57;5.35;;;;;;;;;;4334201;33;20497;-70
2021/06/13 14:50:07;;;;;;;10.85;5.50;;;;;;;;;;4334444;33;20191;-71
2021/06/13 14:52:34;;;;;;;9.95;5.65;;;;;;;;;;4333998;33;20102;-71
2021/06/13 14:55:00;;;;;;;11.65;6.00;;;;;;;;;;4334198;33;20086;-71
2021/06/13 14:57:26;;;;;;;11.60;6.80;;;;;;;;;;4334502;33;20509;-71
2021/06/13 14:59:52;;;;;;;12.95;6.62;;;;;;;;;;4334268;33;20125;-71
2021/06/13 15:02:18;;;;;;;14.23;6.75;;;;;;;;;;4334204;33;20106;-71
2021/06/13 15:04:44;;;;;;;7.22;5.43;;;;;;;;;;4334036;33;20185;-71
2021/06/13 15:07:10;;;;;;;11.80;7.00;;;;;;;;;;4334082;33;20115;-71
2021/06/13 15:09:37;;;;;;;11.48;5.95;;;;;;;;;;4334019;33;20192;-71
2021/06/13 15:12:04;;;;;;;12.70;6.35;;;;;;;;;;4332621;33;20110;-71
2021/06/13 15:14:30;;;;;;;11.85;5.72;;;;;;;;;;4333976;33;20121;-71
2021/06/13 15:16:56;;;;;;;10.32;6.18;;;;;;;;;;4320668;33;20106;-70
2021/06/13 15:19:23;;;;;;;11.43;7.00;;;;;;;;;;4334162;33;20213;-71